createdAt,value
2018-05-26T00:02:10.928Z,6.45
2018-05-26T00:04:44.770Z,5.62
2018-05-26T00:07:19.365Z,6.20
2018-05-26T00:09:53.232Z,6.68
2018-05-26T00:12:27.068Z,6.65
2018-05-26T00:15:00.659Z,6.85
2018-05-26T00:17:34.368Z,6.65
2018-05-26T00:20:08.207Z,5.45
2018-05-26T00:36:02.347Z,6.78
2018-05-26T00:38:37.004Z,5.55
2018-05-26T00:41:10.737Z,6.10
2018-05-26T00:43:44.427Z,5.72
2018-05-26T00:46:19.027Z,6.78
2018-05-26T00:48:52.776Z,6.20
2018-05-26T00:51:26.613Z,6.65
2018-05-26T00:54:00.530Z,6.45
2018-05-26T00:56:34.260Z,6.30
2018-05-26T00:59:08.068Z,5.80
2018-05-26T01:01:41.921Z,5.95
2018-05-26T01:04:15.620Z,6.20
2018-05-26T01:06:49.212Z,7.12
2018-05-26T01:09:23.073Z,6.40
2018-05-26T01:11:56.928Z,6.20
2018-05-26T01:14:30.599Z,6.80
2018-05-26T01:17:04.383Z,6.50
2018-05-26T01:19:38.193Z,6.47
2018-05-26T01:22:12.011Z,6.45
2018-05-26T01:24:45.776Z,6.20
2018-05-26T01:27:19.577Z,6.45
2018-05-26T01:29:53.395Z,7.15
2018-05-26T01:32:27.268Z,6.40
2018-05-26T01:35:00.901Z,6.80
2018-05-26T01:37:34.520Z,7.28
2018-05-26T01:40:08.304Z,8.30
2018-05-26T01:42:41.988Z,7.00
2018-05-26T01:45:15.688Z,7.15
2018-05-26T01:47:49.486Z,7.00
2018-05-26T01:50:23.318Z,6.95
2018-05-26T01:52:57.138Z,6.47
2018-05-26T01:55:30.778Z,6.95
2018-05-26T01:58:04.596Z,7.45
2018-05-26T02:00:39.133Z,7.00
2018-05-26T02:03:12.872Z,6.75
2018-05-26T02:05:46.500Z,6.87
2018-05-26T02:08:20.361Z,6.78
2018-05-26T02:10:54.813Z,8.07
2018-05-26T02:13:28.480Z,7.90
2018-05-26T02:16:02.255Z,7.37
2018-05-26T02:18:35.972Z,7.65
2018-05-26T02:21:10.455Z,7.30
2018-05-26T02:23:44.985Z,8.10
2018-05-26T02:26:18.644Z,8.48
2018-05-26T02:28:52.376Z,8.55
2018-05-26T02:31:26.220Z,7.82
2018-05-26T02:34:00.060Z,8.15
2018-05-26T02:36:33.852Z,8.30
2018-05-26T02:39:08.432Z,7.25
2018-05-26T02:41:42.052Z,7.57
2018-05-26T02:44:15.812Z,8.18
2018-05-26T02:46:49.596Z,8.38
2018-05-26T02:49:23.478Z,7.90
2018-05-26T02:51:57.194Z,8.25
2018-05-26T02:54:30.971Z,8.18
2018-05-26T02:57:04.747Z,8.70
2018-05-26T02:59:38.520Z,9.38
2018-05-26T03:02:12.384Z,9.15
2018-05-26T03:04:52.000Z,9.95
2018-05-26T03:07:31.468Z,9.55
2018-05-26T03:10:11.138Z,9.65
2018-05-26T03:12:51.233Z,9.27
2018-05-26T03:15:24.522Z,8.95
2018-05-26T03:18:13.728Z,10.00
2018-05-26T03:20:47.448Z,9.93
2018-05-26T03:23:21.179Z,9.77
2018-05-26T03:25:54.895Z,9.90
2018-05-26T03:28:28.688Z,9.48
2018-05-26T03:31:03.272Z,8.80
2018-05-26T03:33:37.716Z,9.95
2018-05-26T03:36:11.518Z,10.48
2018-05-26T03:38:45.300Z,9.88
2018-05-26T03:41:19.164Z,9.15
2018-05-26T03:43:53.840Z,9.20
2018-05-26T03:46:27.508Z,8.70
2018-05-26T03:49:01.164Z,8.60
2018-05-26T03:51:35.012Z,8.70
2018-05-26T03:54:08.755Z,8.77
2018-05-26T03:56:55.356Z,9.50
2018-05-26T04:12:58.267Z,10.10
2018-05-26T04:15:31.876Z,10.55
2018-05-26T04:18:05.699Z,9.70
2018-05-26T04:20:39.480Z,9.05
2018-05-26T04:23:13.096Z,9.10
2018-05-26T04:25:46.895Z,10.00
2018-05-26T04:28:22.099Z,8.65
2018-05-26T04:30:55.726Z,9.65
2018-05-26T04:33:29.501Z,9.38
2018-05-26T04:36:04.005Z,9.70
2018-05-26T04:38:37.622Z,10.30
2018-05-26T04:41:11.406Z,10.70
2018-05-26T04:43:45.209Z,11.15
2018-05-26T04:46:19.743Z,10.93
2018-05-26T04:48:54.199Z,11.48
2018-05-26T04:51:27.921Z,11.55
2018-05-26T04:54:01.694Z,12.43
2018-05-26T04:56:35.469Z,11.68
2018-05-26T04:59:09.275Z,10.80
2018-05-26T05:01:43.000Z,11.50
2018-05-26T05:04:17.623Z,11.18
2018-05-26T05:06:51.300Z,11.27
2018-05-26T05:09:25.077Z,11.30
2018-05-26T05:11:58.840Z,11.20
2018-05-26T05:14:32.681Z,10.05
2018-05-26T05:17:07.285Z,12.00
2018-05-26T05:19:41.013Z,11.60
2018-05-26T05:22:14.804Z,11.48
2018-05-26T05:24:49.333Z,12.15
2018-05-26T05:27:23.125Z,12.48
2018-05-26T05:29:56.895Z,14.77
2018-05-26T05:32:30.778Z,12.57
2018-05-26T05:35:04.562Z,13.07
2018-05-26T05:37:38.225Z,13.00
2018-05-26T05:40:12.008Z,14.07
2018-05-26T05:42:45.716Z,12.23
2018-05-26T05:45:20.089Z,14.77
2018-05-26T05:47:53.906Z,13.05
2018-05-26T05:50:27.676Z,13.35
2018-05-26T05:53:02.210Z,13.90
2018-05-26T05:55:36.007Z,12.73
2018-05-26T05:58:09.737Z,14.52
2018-05-26T06:00:43.645Z,14.98
2018-05-26T06:03:17.264Z,14.40
2018-05-26T06:05:50.933Z,13.02
2018-05-26T06:08:24.772Z,13.80
2018-05-26T06:10:58.621Z,13.80
2018-05-26T06:13:32.321Z,14.45
2018-05-26T06:16:06.909Z,14.70
2018-05-26T06:18:40.692Z,15.35
2018-05-26T06:21:15.200Z,14.40
2018-05-26T06:23:49.642Z,14.57
2018-05-26T06:26:24.753Z,14.40
2018-05-26T06:28:58.299Z,14.98
2018-05-26T06:31:31.987Z,14.10
2018-05-26T06:34:05.733Z,18.23
2018-05-26T06:36:39.388Z,16.17
2018-05-26T06:39:12.994Z,15.75
2018-05-26T06:41:47.648Z,16.55
2018-05-26T06:44:21.300Z,16.77
2018-05-26T06:46:54.997Z,15.85
2018-05-26T06:49:28.594Z,15.40
2018-05-26T06:52:03.068Z,16.08
2018-05-26T06:54:36.919Z,15.02
2018-05-26T06:57:11.572Z,14.38
2018-05-26T06:59:45.180Z,15.85
2018-05-26T07:02:19.001Z,15.15
2018-05-26T07:04:52.728Z,13.15
2018-05-26T07:07:26.537Z,13.13
2018-05-26T07:10:00.327Z,12.95
2018-05-26T07:12:34.248Z,13.02
2018-05-26T07:15:08.716Z,11.63
2018-05-26T07:17:42.532Z,11.75
2018-05-26T07:20:16.243Z,12.25
2018-05-26T07:22:50.058Z,11.35
2018-05-26T07:25:24.671Z,11.30
2018-05-26T07:27:58.424Z,11.10
2018-05-26T07:30:32.188Z,10.93
2018-05-26T07:33:05.880Z,10.50
2018-05-26T07:35:40.375Z,9.85
2018-05-26T07:38:14.236Z,8.40
2018-05-26T07:40:47.872Z,9.15
2018-05-26T07:43:21.476Z,8.63
2018-05-26T07:45:55.154Z,7.80
2018-05-26T07:48:28.984Z,8.70
2018-05-26T07:51:02.700Z,7.10
2018-05-26T07:53:36.477Z,7.90
2018-05-26T07:56:10.176Z,7.10
2018-05-26T07:58:44.043Z,7.53
2018-05-26T08:01:17.703Z,6.67
2018-05-26T08:03:51.360Z,7.63
2018-05-26T08:06:26.008Z,8.40
2018-05-26T08:09:00.502Z,11.30
2018-05-26T08:11:34.201Z,8.00
2018-05-26T08:14:07.836Z,8.40
2018-05-26T08:16:42.417Z,8.77
2018-05-26T08:19:16.186Z,7.30
2018-05-26T08:21:49.929Z,7.70
2018-05-26T08:24:23.651Z,6.77
2018-05-26T08:26:57.418Z,7.10
2018-05-26T08:29:32.029Z,8.03
2018-05-26T08:32:05.871Z,7.27
2018-05-26T08:34:39.672Z,7.27
2018-05-26T08:37:13.636Z,6.60
2018-05-26T08:39:47.465Z,6.83
2018-05-26T08:42:22.017Z,6.30
2018-05-26T08:44:56.005Z,6.40
2018-05-26T08:47:29.695Z,5.03
2018-05-26T08:50:03.394Z,5.97
2018-05-26T08:52:37.827Z,6.20
2018-05-26T08:55:11.443Z,6.37
2018-05-26T08:57:45.120Z,6.67
2018-05-26T09:00:18.836Z,5.30
2018-05-26T09:02:53.412Z,6.20
2018-05-26T09:05:27.195Z,6.10
2018-05-26T09:08:00.989Z,6.27
2018-05-26T09:10:34.813Z,5.90
2018-05-26T09:13:08.508Z,5.40
2018-05-26T09:15:42.296Z,5.50
2018-05-26T09:18:16.837Z,5.90
2018-05-26T09:20:50.622Z,5.10
2018-05-26T09:23:24.249Z,4.80
2018-05-26T09:25:57.987Z,5.77
2018-05-26T09:28:31.639Z,5.10
2018-05-26T09:31:05.436Z,5.10
2018-05-26T09:33:39.302Z,5.10
2018-05-26T09:36:13.065Z,3.80
2018-05-26T09:38:46.680Z,3.80
2018-05-26T09:41:20.460Z,3.80
2018-05-26T09:43:54.168Z,5.07
2018-05-26T09:46:28.013Z,3.97
2018-05-26T09:49:01.872Z,3.70
2018-05-26T09:51:36.324Z,4.17
2018-05-26T09:54:10.163Z,3.33
2018-05-26T09:56:43.833Z,3.20
2018-05-26T09:59:18.439Z,3.67
2018-05-26T10:01:52.144Z,4.30
2018-05-26T10:04:25.880Z,3.57
2018-05-26T10:06:59.598Z,3.97
2018-05-26T10:09:33.409Z,3.47
2018-05-26T10:12:08.764Z,4.40
2018-05-26T10:14:45.148Z,3.40
2018-05-26T10:17:19.328Z,5.67
2018-05-26T10:19:52.918Z,3.07
2018-05-26T10:22:26.681Z,3.40
2018-05-26T10:25:01.269Z,2.83
2018-05-26T10:27:35.031Z,3.70
2018-05-26T10:30:08.870Z,3.23
2018-05-26T10:32:43.401Z,3.50
2018-05-26T10:35:17.176Z,3.60
2018-05-26T10:37:50.799Z,3.13
2018-05-26T10:53:22.440Z,3.30
2018-05-26T10:55:56.126Z,3.87
2018-05-26T10:58:29.859Z,7.33
2018-05-26T11:01:04.382Z,7.20
2018-05-26T11:03:37.961Z,5.00
2018-05-26T11:06:11.723Z,3.33
2018-05-26T11:08:45.475Z,3.90
2018-05-26T11:11:19.233Z,3.50
2018-05-26T11:13:53.901Z,6.33
2018-05-26T11:16:27.763Z,3.30
2018-05-26T11:19:01.527Z,3.80
2018-05-26T11:21:35.360Z,2.80
2018-05-26T11:24:09.242Z,3.23
2018-05-26T11:26:42.976Z,2.87
2018-05-26T11:29:16.686Z,3.47
2018-05-26T11:31:50.407Z,3.20
2018-05-26T11:34:24.121Z,2.90
2018-05-26T11:36:58.652Z,3.40
2018-05-26T11:39:32.455Z,3.70
2018-05-26T11:42:06.924Z,3.80
2018-05-26T11:44:40.756Z,3.90
2018-05-26T11:47:15.316Z,3.30
2018-05-26T11:49:49.165Z,2.97
2018-05-26T11:52:22.930Z,3.33
2018-05-26T11:54:57.461Z,4.03
2018-05-26T11:57:31.217Z,3.60
2018-05-26T12:00:05.900Z,4.20
2018-05-26T12:02:39.614Z,3.73
2018-05-26T12:05:13.435Z,3.27
2018-05-26T12:07:47.194Z,3.97
2018-05-26T12:10:20.988Z,3.40
2018-05-26T12:12:54.865Z,3.97
2018-05-26T12:15:28.537Z,3.33
2018-05-26T12:18:02.325Z,4.00
2018-05-26T12:20:36.052Z,4.27
2018-05-26T12:23:10.629Z,3.53
2018-05-26T12:25:44.454Z,3.73
2018-05-26T12:28:18.977Z,3.30
2018-05-26T12:30:52.794Z,4.30
2018-05-26T12:33:26.522Z,3.63
2018-05-26T12:36:00.199Z,3.63
2018-05-26T12:38:34.844Z,2.97
2018-05-26T12:41:08.568Z,3.00
2018-05-26T12:56:36.376Z,3.17
2018-05-26T12:59:10.191Z,3.53
2018-05-26T13:01:43.960Z,3.27
2018-05-26T13:04:17.586Z,5.30
2018-05-26T13:06:52.121Z,5.07
2018-05-26T13:09:25.895Z,3.67
2018-05-26T13:12:00.370Z,3.57
2018-05-26T13:14:34.071Z,3.40
2018-05-26T13:17:08.733Z,3.70
2018-05-26T13:19:43.189Z,3.20
2018-05-26T13:22:16.928Z,4.07
2018-05-26T13:24:50.590Z,3.60
2018-05-26T13:27:25.193Z,3.33
2018-05-26T13:29:59.682Z,3.47
2018-05-26T13:32:33.516Z,3.10
2018-05-26T13:35:08.211Z,4.43
2018-05-26T13:37:42.022Z,3.40
2018-05-26T13:40:15.671Z,3.43
2018-05-26T13:42:49.470Z,4.80
2018-05-26T13:45:23.085Z,3.13
2018-05-26T13:47:56.715Z,3.40
2018-05-26T13:50:30.428Z,3.70
2018-05-26T13:53:05.034Z,3.47
2018-05-26T13:55:38.819Z,3.20
2018-05-26T13:58:12.513Z,3.30
2018-05-26T14:00:47.048Z,3.37
2018-05-26T14:03:20.785Z,3.30
2018-05-26T14:05:54.591Z,3.10
2018-05-26T14:08:28.502Z,3.57
2018-05-26T14:11:02.862Z,4.13
2018-05-26T14:13:36.611Z,3.13
2018-05-26T14:16:10.411Z,3.50
2018-05-26T14:18:44.890Z,3.00
2018-05-26T14:21:18.777Z,3.10
2018-05-26T14:23:52.520Z,4.00
2018-05-26T14:26:26.292Z,3.07
2018-05-26T14:29:00.031Z,3.50
2018-05-26T14:31:33.832Z,2.77
2018-05-26T14:34:07.754Z,3.43
2018-05-26T14:36:41.479Z,3.50
2018-05-26T14:39:15.574Z,3.60
2018-05-26T14:41:49.302Z,3.30
2018-05-26T14:44:23.060Z,3.40
2018-05-26T14:46:57.002Z,4.10
2018-05-26T14:49:30.790Z,3.30
2018-05-26T14:52:04.375Z,3.30
2018-05-26T14:54:38.249Z,3.50
2018-05-26T14:57:11.916Z,3.27
2018-05-26T14:59:46.433Z,2.90
2018-05-26T15:02:20.246Z,3.67
2018-05-26T15:04:54.072Z,3.40
2018-05-26T15:07:28.692Z,3.93
2018-05-26T15:10:02.416Z,3.07
2018-05-26T15:12:36.280Z,4.47
2018-05-26T15:15:11.170Z,3.67
2018-05-26T15:17:44.963Z,3.93
2018-05-26T15:20:18.632Z,3.40
2018-05-26T15:22:53.224Z,3.57
2018-05-26T15:25:27.753Z,4.47
2018-05-26T15:28:02.300Z,6.60
2018-05-26T15:30:36.006Z,6.93
2018-05-26T15:33:10.524Z,6.73
2018-05-26T15:35:44.203Z,3.83
2018-05-26T15:38:17.956Z,4.10
2018-05-26T15:40:51.824Z,4.07
2018-05-26T15:43:25.532Z,3.47
2018-05-26T15:45:59.301Z,3.90
2018-05-26T15:48:33.848Z,3.40
2018-05-26T15:51:07.472Z,3.40
2018-05-26T15:53:41.265Z,4.63
2018-05-26T15:56:15.044Z,3.80
2018-05-26T15:58:48.847Z,3.93
2018-05-26T16:01:22.573Z,3.40
2018-05-26T16:03:57.011Z,3.37
2018-05-26T16:06:30.776Z,4.43
2018-05-26T16:09:05.409Z,4.17
2018-05-26T16:11:39.088Z,3.60
2018-05-26T16:14:12.732Z,3.60
2018-05-26T16:16:46.568Z,3.07
2018-05-26T16:19:21.006Z,3.13
2018-05-26T16:21:54.731Z,3.97
2018-05-26T16:24:28.546Z,3.87
2018-05-26T16:27:02.449Z,3.70
2018-05-26T16:29:36.182Z,3.20
2018-05-26T16:32:09.904Z,3.37
2018-05-26T16:34:43.560Z,3.37
2018-05-26T16:37:17.388Z,3.87
2018-05-26T16:39:51.193Z,3.80
2018-05-26T16:42:25.102Z,3.93
2018-05-26T16:44:59.665Z,3.77
2018-05-26T16:47:34.236Z,3.50
2018-05-26T16:50:07.988Z,4.40
2018-05-26T16:52:41.782Z,2.83
2018-05-26T16:55:15.683Z,3.07
2018-05-26T16:57:50.210Z,3.40
2018-05-26T17:00:23.925Z,3.00
2018-05-26T17:02:58.542Z,3.30
2018-05-26T17:05:32.404Z,3.23
2018-05-26T17:08:06.142Z,3.73
2018-05-26T17:10:39.924Z,3.80
2018-05-26T17:13:14.473Z,4.03
2018-05-26T17:15:48.252Z,4.87
2018-05-26T17:18:22.535Z,9.70
2018-05-26T17:20:56.303Z,5.27
2018-05-26T17:23:30.911Z,7.07
2018-05-26T17:26:05.477Z,5.50
2018-05-26T17:28:39.200Z,4.60
2018-05-26T17:31:12.989Z,4.77
2018-05-26T17:33:46.700Z,7.63
2018-05-26T17:36:20.526Z,4.80
2018-05-26T17:38:54.232Z,5.00
2018-05-26T17:41:28.025Z,5.53
2018-05-26T17:44:01.841Z,4.77
2018-05-26T17:46:35.751Z,5.33
2018-05-26T17:49:09.480Z,4.90
2018-05-26T17:51:43.863Z,5.20
2018-05-26T17:54:17.519Z,4.70
2018-05-26T17:56:51.187Z,5.20
2018-05-26T17:59:24.940Z,7.03
2018-05-26T18:01:58.775Z,5.37
2018-05-26T18:04:32.533Z,5.80
2018-05-26T18:07:06.988Z,5.80
2018-05-26T18:09:40.690Z,4.97
2018-05-26T18:12:14.525Z,5.53
2018-05-26T18:14:48.320Z,6.70
2018-05-26T18:17:22.124Z,4.80
2018-05-26T18:19:56.045Z,4.60
2018-05-26T18:22:29.842Z,4.93
2018-05-26T18:25:04.383Z,5.20
2018-05-26T18:27:38.009Z,5.87
2018-05-26T18:30:12.227Z,5.70
2018-05-26T18:32:45.922Z,7.20
2018-05-26T18:35:19.652Z,5.57
2018-05-26T18:37:53.477Z,5.83
2018-05-26T18:40:27.893Z,6.80
2018-05-26T18:43:01.595Z,5.87
2018-05-26T18:45:35.425Z,6.80
2018-05-26T18:48:09.933Z,6.33
2018-05-26T18:50:43.722Z,6.93
2018-05-26T18:53:17.589Z,7.77
2018-05-26T18:55:51.324Z,6.80
2018-05-26T18:58:25.167Z,6.73
2018-05-26T19:00:58.989Z,7.07
2018-05-26T19:03:32.693Z,8.17
2018-05-26T19:06:06.598Z,7.60
2018-05-26T19:08:40.300Z,9.30
2018-05-26T19:11:14.824Z,7.87
2018-05-26T19:13:49.452Z,8.33
2018-05-26T19:16:23.936Z,6.70
2018-05-26T19:18:58.491Z,6.90
2018-05-26T19:21:32.247Z,7.67
2018-05-26T19:24:06.026Z,10.30
2018-05-26T19:26:39.741Z,10.60
2018-05-26T19:29:13.424Z,8.90
2018-05-26T19:31:48.083Z,9.40
2018-05-26T19:34:21.719Z,8.30
2018-05-26T19:36:55.429Z,7.87
2018-05-26T19:39:29.244Z,8.17
2018-05-26T19:42:03.070Z,8.23
2018-05-26T19:44:36.785Z,7.30
2018-05-26T19:47:10.596Z,7.70
2018-05-26T19:49:44.270Z,6.47
2018-05-26T19:52:18.015Z,6.83
2018-05-26T19:54:51.710Z,6.00
2018-05-26T19:57:25.467Z,5.90
2018-05-26T19:59:59.410Z,5.70
2018-05-26T20:02:33.057Z,6.40
2018-05-26T20:05:07.457Z,7.33
2018-05-26T20:07:41.081Z,7.90
2018-05-26T20:10:14.713Z,8.13
2018-05-26T20:12:48.542Z,7.03
2018-05-26T20:15:22.292Z,7.77
2018-05-26T20:17:56.087Z,7.80
2018-05-26T20:20:30.695Z,7.80
2018-05-26T20:23:05.179Z,8.20
2018-05-26T20:25:39.701Z,7.83
2018-05-26T20:28:13.472Z,7.20
2018-05-26T20:30:48.035Z,8.80
2018-05-26T20:33:21.800Z,8.07
2018-05-26T20:35:55.666Z,7.47
2018-05-26T20:38:29.364Z,8.40
2018-05-26T20:41:03.153Z,8.03
2018-05-26T20:43:37.000Z,7.07
2018-05-26T20:46:11.660Z,7.40
2018-05-26T20:48:46.209Z,7.13
2018-05-26T20:51:19.993Z,6.97
2018-05-26T20:53:53.768Z,7.53
2018-05-26T20:56:28.198Z,7.57
2018-05-26T20:59:02.746Z,7.77
2018-05-26T21:01:36.512Z,7.93
2018-05-26T21:04:10.332Z,7.60
2018-05-26T21:06:43.925Z,7.80
2018-05-26T21:09:18.580Z,7.23
2018-05-26T21:11:52.980Z,6.83
2018-05-26T21:14:26.602Z,6.00
2018-05-26T21:17:00.352Z,6.33
2018-05-26T21:19:34.118Z,5.97
2018-05-26T21:22:08.737Z,7.53
2018-05-26T21:24:42.549Z,6.70
2018-05-26T21:27:16.412Z,5.60
2018-05-26T21:29:50.935Z,7.80
2018-05-26T21:32:24.652Z,7.27
2018-05-26T21:34:58.975Z,6.60
2018-05-26T21:37:32.728Z,6.60
2018-05-26T21:40:06.464Z,6.23
2018-05-26T21:42:40.108Z,7.40
2018-05-26T21:45:13.864Z,5.90
2018-05-26T21:47:47.491Z,6.57
2018-05-26T21:50:21.199Z,5.87
2018-05-26T21:52:54.920Z,6.13
2018-05-26T21:55:28.691Z,6.23
2018-05-26T21:58:02.486Z,6.87
2018-05-26T22:00:36.145Z,6.37
2018-05-26T22:03:09.839Z,7.53
2018-05-26T22:05:43.722Z,6.00
2018-05-26T22:08:17.315Z,6.53
2018-05-26T22:10:50.911Z,6.53
2018-05-26T22:13:25.608Z,5.90
2018-05-26T22:16:00.198Z,6.47
2018-05-26T22:18:34.127Z,5.53
2018-05-26T22:21:07.882Z,6.90
2018-05-26T22:23:42.439Z,7.07
2018-05-26T22:26:16.226Z,6.10
2018-05-26T22:28:50.021Z,6.00
2018-05-26T22:31:24.453Z,5.90
2018-05-26T22:33:59.160Z,5.63
2018-05-26T22:36:32.828Z,7.20
2018-05-26T22:39:06.588Z,5.90
2018-05-26T22:41:40.444Z,6.37
2018-05-26T22:44:14.078Z,7.87
2018-05-26T22:46:48.440Z,8.00
2018-05-26T22:49:22.964Z,9.80
2018-05-26T22:51:57.700Z,9.40
2018-05-26T22:54:31.340Z,9.40
2018-05-26T22:57:05.040Z,10.20
2018-05-26T22:59:39.427Z,7.60
2018-05-26T23:02:13.127Z,9.90
2018-05-26T23:04:46.967Z,8.33
2018-05-26T23:07:20.725Z,9.47
2018-05-26T23:09:55.272Z,9.33
2018-05-26T23:12:29.037Z,7.60
2018-05-26T23:15:02.673Z,8.13
2018-05-26T23:17:36.324Z,7.80
2018-05-26T23:20:10.984Z,7.30
2018-05-26T23:22:44.816Z,7.70
2018-05-26T23:25:19.318Z,7.93
2018-05-26T23:27:52.995Z,8.23
2018-05-26T23:30:26.754Z,7.93
2018-05-26T23:33:00.312Z,7.55
2018-05-26T23:35:34.959Z,7.20
2018-05-26T23:38:08.744Z,8.73
2018-05-26T23:40:42.432Z,6.70
2018-05-26T23:43:16.279Z,7.07
2018-05-26T23:45:50.894Z,7.45
2018-05-26T23:48:24.719Z,6.55
2018-05-26T23:50:58.554Z,7.50
2018-05-26T23:53:32.246Z,7.03
2018-05-26T23:56:05.922Z,6.80
2018-05-26T23:58:39.544Z,7.15
